RYR24P EGBB-EGPF
Flight info
| Callsign | RYR24P |
|---|---|
| Flight time | 0h 45m |
| Altitude | 28000 |
| Route | LUVUM DCT TNT N57 POL/N0404F240 N601 RIBEL DCT ASLIB |
| Aircraft | B738/M-SDE2E3FGHIRWXY/LB1 |
Departure
| Time | 2026-05-06 18:49 |
|---|---|
| Airport | Birmingham Airport (EGBB) |
Arrival
| Time | 2026-05-06 19:34 |
|---|---|
| Airport | Glasgow Airport (EGPF) |
| Time | Latitude | Longitude | Altitude | Speed | Heading |
|---|---|---|---|---|---|
| 2026-05-06 18:36 | 52.45457 | -1.73423 | 320 ft | 0 kts | 146° |
| 2026-05-06 18:40 | 52.45488 | -1.73458 | 320 ft | 3 kts | 146° |
| 2026-05-06 18:40 | 52.45500 | -1.73471 | 321 ft | 4 kts | 162° |
| 2026-05-06 18:40 | 52.45522 | -1.73469 | 320 ft | 4 kts | 224° |
| 2026-05-06 18:40 | 52.45534 | -1.73444 | 319 ft | 1 kts | 236° |
| 2026-05-06 18:41 | 52.45536 | -1.73439 | 321 ft | 0 kts | 236° |
| 2026-05-06 18:42 | 52.45530 | -1.73455 | 319 ft | 6 kts | 236° |
| 2026-05-06 18:43 | 52.45491 | -1.73548 | 322 ft | 12 kts | 236° |
| 2026-05-06 18:43 | 52.45442 | -1.73666 | 322 ft | 12 kts | 236° |
| 2026-05-06 18:43 | 52.45394 | -1.73782 | 322 ft | 12 kts | 236° |
| 2026-05-06 18:43 | 52.45347 | -1.73894 | 322 ft | 12 kts | 236° |
| 2026-05-06 18:44 | 52.45287 | -1.73970 | 322 ft | 11 kts | 175° |
| 2026-05-06 18:44 | 52.45219 | -1.73907 | 322 ft | 11 kts | 146° |
| 2026-05-06 18:44 | 52.45156 | -1.73836 | 322 ft | 11 kts | 145° |
| 2026-05-06 18:44 | 52.45093 | -1.73770 | 322 ft | 11 kts | 155° |
| 2026-05-06 18:45 | 52.45025 | -1.73729 | 322 ft | 10 kts | 154° |
| 2026-05-06 18:45 | 52.44967 | -1.73665 | 322 ft | 10 kts | 143° |
| 2026-05-06 18:45 | 52.44904 | -1.73645 | 322 ft | 10 kts | 194° |
| 2026-05-06 18:45 | 52.44840 | -1.73676 | 321 ft | 9 kts | 198° |
| 2026-05-06 18:46 | 52.44778 | -1.73709 | 323 ft | 9 kts | 197° |
| 2026-05-06 18:46 | 52.44726 | -1.73763 | 322 ft | 7 kts | 230° |
| 2026-05-06 18:46 | 52.44722 | -1.73771 | 323 ft | 0 kts | 230° |
| 2026-05-06 18:47 | 52.44696 | -1.73828 | 324 ft | 9 kts | 236° |
| 2026-05-06 18:47 | 52.44658 | -1.73918 | 324 ft | 8 kts | 235° |
| 2026-05-06 18:48 | 52.44662 | -1.73989 | 325 ft | 7 kts | 312° |
| 2026-05-06 18:48 | 52.44814 | -1.74167 | 323 ft | 62 kts | 325° |
| 2026-05-06 18:48 | 52.45398 | -1.74813 | 322 ft | 138 kts | 326° |
| 2026-05-06 18:48 | 52.46346 | -1.75850 | 626 ft | 177 kts | 328° |
| 2026-05-06 18:49 | 52.47431 | -1.77026 | 1491 ft | 194 kts | 330° |
| 2026-05-06 18:49 | 52.48558 | -1.78205 | 2536 ft | 189 kts | 330° |
| 2026-05-06 18:49 | 52.49722 | -1.79144 | 3164 ft | 183 kts | 351° |
| 2026-05-06 18:49 | 52.50980 | -1.79120 | 3682 ft | 188 kts | 9° |
| 2026-05-06 18:50 | 52.52325 | -1.78695 | 4128 ft | 204 kts | 11° |
| 2026-05-06 18:50 | 52.53799 | -1.78304 | 4489 ft | 220 kts | 6° |
| 2026-05-06 18:50 | 52.55321 | -1.77990 | 5177 ft | 222 kts | 5° |
| 2026-05-06 18:50 | 52.56862 | -1.77680 | 5850 ft | 227 kts | 5° |
| 2026-05-06 18:51 | 52.58495 | -1.77352 | 6259 ft | 249 kts | 5° |
| 2026-05-06 18:51 | 52.60268 | -1.76994 | 6828 ft | 262 kts | 5° |
| 2026-05-06 18:51 | 52.62092 | -1.76621 | 7600 ft | 266 kts | 5° |
| 2026-05-06 18:51 | 52.63941 | -1.76242 | 8406 ft | 270 kts | 5° |
| 2026-05-06 18:52 | 52.65822 | -1.75856 | 9196 ft | 275 kts | 5° |
| 2026-05-06 18:52 | 52.67743 | -1.75462 | 9888 ft | 285 kts | 5° |
| 2026-05-06 18:52 | 52.69759 | -1.75050 | 10355 ft | 298 kts | 5° |
| 2026-05-06 18:52 | 52.71828 | -1.74624 | 11066 ft | 302 kts | 6° |
| 2026-05-06 18:53 | 52.73923 | -1.74187 | 11853 ft | 305 kts | 5° |
| 2026-05-06 18:53 | 52.76040 | -1.73736 | 12619 ft | 309 kts | 6° |
| 2026-05-06 18:53 | 52.78187 | -1.73263 | 13359 ft | 313 kts | 6° |
| 2026-05-06 18:53 | 52.80354 | -1.72767 | 14091 ft | 316 kts | 6° |
| 2026-05-06 18:54 | 52.82546 | -1.72262 | 14764 ft | 320 kts | 6° |
| 2026-05-06 18:54 | 52.84764 | -1.71751 | 15416 ft | 324 kts | 6° |
| 2026-05-06 18:54 | 52.87009 | -1.71234 | 16088 ft | 328 kts | 6° |
| 2026-05-06 18:54 | 52.89279 | -1.70713 | 16746 ft | 331 kts | 6° |
| 2026-05-06 18:55 | 52.91549 | -1.70191 | 17392 ft | 335 kts | 6° |
| 2026-05-06 18:55 | 52.93876 | -1.69656 | 18042 ft | 339 kts | 6° |
| 2026-05-06 18:55 | 52.96226 | -1.69116 | 18646 ft | 343 kts | 6° |
| 2026-05-06 18:55 | 52.98601 | -1.68570 | 19232 ft | 346 kts | 6° |
| 2026-05-06 18:56 | 53.00999 | -1.68017 | 19839 ft | 349 kts | 6° |
| 2026-05-06 18:56 | 53.03417 | -1.67516 | 20409 ft | 351 kts | 1° |
| 2026-05-06 18:56 | 53.05855 | -1.67689 | 20982 ft | 351 kts | 349° |
| 2026-05-06 18:56 | 53.08230 | -1.68622 | 21557 ft | 351 kts | 339° |
| 2026-05-06 18:57 | 53.10524 | -1.70059 | 22133 ft | 354 kts | 336° |
| 2026-05-06 18:57 | 53.12828 | -1.71552 | 22689 ft | 357 kts | 337° |
| 2026-05-06 18:57 | 53.15161 | -1.73035 | 23227 ft | 360 kts | 337° |
| 2026-05-06 18:57 | 53.17519 | -1.74511 | 23749 ft | 363 kts | 338° |
| 2026-05-06 18:58 | 53.19896 | -1.75990 | 24214 ft | 365 kts | 338° |
| 2026-05-06 18:58 | 53.22280 | -1.77472 | 24678 ft | 367 kts | 338° |
| 2026-05-06 18:58 | 53.24686 | -1.78968 | 25175 ft | 369 kts | 338° |
| 2026-05-06 18:58 | 53.27094 | -1.80467 | 25650 ft | 370 kts | 338° |
| 2026-05-06 18:59 | 53.29513 | -1.81976 | 26101 ft | 372 kts | 338° |
| 2026-05-06 18:59 | 53.31941 | -1.83493 | 26548 ft | 374 kts | 338° |
| 2026-05-06 18:59 | 53.34389 | -1.85024 | 26977 ft | 376 kts | 338° |
| 2026-05-06 18:59 | 53.36816 | -1.86545 | 27399 ft | 378 kts | 338° |
| 2026-05-06 19:00 | 53.39294 | -1.88099 | 27818 ft | 380 kts | 338° |
| 2026-05-06 19:00 | 53.41784 | -1.89664 | 28030 ft | 386 kts | 338° |
| 2026-05-06 19:00 | 53.44339 | -1.91270 | 28046 ft | 396 kts | 338° |
| 2026-05-06 19:01 | 53.49609 | -1.94589 | 28053 ft | 413 kts | 338° |
| 2026-05-06 19:01 | 53.55084 | -1.98046 | 28044 ft | 426 kts | 338° |
| 2026-05-06 19:02 | 53.60651 | -2.01563 | 28032 ft | 427 kts | 338° |
| 2026-05-06 19:02 | 53.66164 | -2.05058 | 28030 ft | 426 kts | 338° |
| 2026-05-06 19:03 | 53.71701 | -2.08578 | 28012 ft | 424 kts | 339° |
| 2026-05-06 19:03 | 53.77185 | -2.12155 | 28025 ft | 421 kts | 337° |
| 2026-05-06 19:04 | 53.82588 | -2.15925 | 28035 ft | 419 kts | 337° |
| 2026-05-06 19:04 | 53.87950 | -2.19637 | 28026 ft | 418 kts | 337° |
| 2026-05-06 19:05 | 53.93343 | -2.23325 | 28035 ft | 418 kts | 337° |
| 2026-05-06 19:05 | 53.98742 | -2.27028 | 28041 ft | 418 kts | 336° |
| 2026-05-06 19:06 | 54.04059 | -2.31073 | 28038 ft | 418 kts | 331° |
| 2026-05-06 19:06 | 54.09155 | -2.35879 | 28028 ft | 419 kts | 329° |
| 2026-05-06 19:07 | 54.14227 | -2.40756 | 28027 ft | 419 kts | 330° |
| 2026-05-06 19:07 | 54.19321 | -2.45600 | 28026 ft | 419 kts | 330° |
| 2026-05-06 19:08 | 54.24397 | -2.50399 | 28032 ft | 420 kts | 330° |
| 2026-05-06 19:08 | 54.29508 | -2.55232 | 28028 ft | 419 kts | 330° |
| 2026-05-06 19:09 | 54.34611 | -2.60072 | 28015 ft | 418 kts | 330° |
| 2026-05-06 19:09 | 54.39692 | -2.64906 | 28023 ft | 417 kts | 330° |
| 2026-05-06 19:10 | 54.44778 | -2.69759 | 28016 ft | 417 kts | 330° |
| 2026-05-06 19:10 | 54.49849 | -2.74612 | 28030 ft | 417 kts | 330° |
| 2026-05-06 19:11 | 54.54925 | -2.79483 | 28018 ft | 417 kts | 330° |
| 2026-05-06 19:11 | 54.59991 | -2.84359 | 28027 ft | 417 kts | 330° |
| 2026-05-06 19:12 | 54.65022 | -2.89215 | 28020 ft | 417 kts | 330° |
| 2026-05-06 19:12 | 54.70032 | -2.94063 | 28006 ft | 402 kts | 330° |
| 2026-05-06 19:12 | 54.72446 | -2.96405 | 27722 ft | 394 kts | 329° |
| 2026-05-06 19:13 | 54.74806 | -2.98697 | 27374 ft | 387 kts | 329° |
| 2026-05-06 19:13 | 54.77144 | -3.00972 | 26975 ft | 382 kts | 329° |
| 2026-05-06 19:13 | 54.79449 | -3.03217 | 26526 ft | 379 kts | 329° |
| 2026-05-06 19:13 | 54.81739 | -3.05449 | 26091 ft | 376 kts | 329° |
| 2026-05-06 19:14 | 54.84007 | -3.07663 | 25723 ft | 372 kts | 329° |
| 2026-05-06 19:14 | 54.86250 | -3.09853 | 25362 ft | 368 kts | 329° |
| 2026-05-06 19:14 | 54.88489 | -3.12043 | 25029 ft | 371 kts | 329° |
| 2026-05-06 19:14 | 54.90754 | -3.14262 | 24677 ft | 376 kts | 328° |
| 2026-05-06 19:15 | 54.93040 | -3.16504 | 24312 ft | 377 kts | 328° |
| 2026-05-06 19:15 | 54.95321 | -3.18742 | 23947 ft | 375 kts | 328° |
| 2026-05-06 19:15 | 54.97562 | -3.20943 | 23603 ft | 372 kts | 328° |
| 2026-05-06 19:15 | 54.99811 | -3.23155 | 23164 ft | 370 kts | 328° |
| 2026-05-06 19:16 | 55.02046 | -3.25358 | 22782 ft | 367 kts | 328° |
| 2026-05-06 19:16 | 55.04257 | -3.27542 | 22420 ft | 364 kts | 328° |
| 2026-05-06 19:16 | 55.06450 | -3.29713 | 22068 ft | 361 kts | 327° |
| 2026-05-06 19:16 | 55.08628 | -3.31871 | 21723 ft | 358 kts | 327° |
| 2026-05-06 19:17 | 55.10789 | -3.34017 | 21374 ft | 356 kts | 327° |
| 2026-05-06 19:17 | 55.12938 | -3.36154 | 21034 ft | 355 kts | 327° |
| 2026-05-06 19:17 | 55.15080 | -3.38284 | 20692 ft | 354 kts | 327° |
| 2026-05-06 19:17 | 55.17220 | -3.40417 | 20352 ft | 353 kts | 327° |
| 2026-05-06 19:18 | 55.19324 | -3.42515 | 20019 ft | 353 kts | 327° |
| 2026-05-06 19:18 | 55.21469 | -3.44658 | 19479 ft | 358 kts | 327° |
| 2026-05-06 19:18 | 55.23643 | -3.46831 | 18963 ft | 361 kts | 327° |
| 2026-05-06 19:18 | 55.25829 | -3.49018 | 18412 ft | 362 kts | 327° |
| 2026-05-06 19:19 | 55.28020 | -3.51213 | 17797 ft | 363 kts | 327° |
| 2026-05-06 19:19 | 55.30216 | -3.53414 | 17185 ft | 363 kts | 327° |
| 2026-05-06 19:19 | 55.32414 | -3.55621 | 16631 ft | 362 kts | 327° |
| 2026-05-06 19:19 | 55.34601 | -3.57820 | 16066 ft | 362 kts | 327° |
| 2026-05-06 19:20 | 55.36783 | -3.60017 | 15521 ft | 361 kts | 327° |
| 2026-05-06 19:20 | 55.38961 | -3.62214 | 14973 ft | 361 kts | 327° |
| 2026-05-06 19:20 | 55.41139 | -3.64413 | 14421 ft | 361 kts | 327° |
| 2026-05-06 19:20 | 55.43316 | -3.66614 | 13878 ft | 360 kts | 327° |
| 2026-05-06 19:21 | 55.45483 | -3.68807 | 13285 ft | 359 kts | 327° |
| 2026-05-06 19:21 | 55.47650 | -3.71003 | 12711 ft | 358 kts | 328° |
| 2026-05-06 19:21 | 55.49786 | -3.73170 | 12150 ft | 357 kts | 328° |
| 2026-05-06 19:21 | 55.51941 | -3.75359 | 11605 ft | 356 kts | 328° |
| 2026-05-06 19:22 | 55.54084 | -3.77539 | 11058 ft | 355 kts | 328° |
| 2026-05-06 19:22 | 55.56221 | -3.79717 | 10524 ft | 354 kts | 328° |
| 2026-05-06 19:22 | 55.58351 | -3.81891 | 9988 ft | 353 kts | 328° |
| 2026-05-06 19:22 | 55.60441 | -3.84025 | 9920 ft | 338 kts | 328° |
| 2026-05-06 19:23 | 55.62435 | -3.86064 | 9835 ft | 324 kts | 328° |
| 2026-05-06 19:23 | 55.64346 | -3.88019 | 9768 ft | 311 kts | 328° |
| 2026-05-06 19:23 | 55.66202 | -3.89923 | 9458 ft | 303 kts | 328° |
| 2026-05-06 19:23 | 55.67997 | -3.91766 | 9174 ft | 293 kts | 328° |
| 2026-05-06 19:24 | 55.69735 | -3.93550 | 8897 ft | 284 kts | 328° |
| 2026-05-06 19:24 | 55.71506 | -3.95016 | 8615 ft | 278 kts | 342° |
| 2026-05-06 19:24 | 55.73376 | -3.95734 | 8361 ft | 271 kts | 348° |
| 2026-05-06 19:24 | 55.75217 | -3.96296 | 8087 ft | 265 kts | 349° |
| 2026-05-06 19:25 | 55.77018 | -3.96832 | 7813 ft | 260 kts | 349° |
| 2026-05-06 19:25 | 55.78782 | -3.97358 | 7552 ft | 254 kts | 349° |
| 2026-05-06 19:25 | 55.80502 | -3.97878 | 7309 ft | 253 kts | 349° |
| 2026-05-06 19:25 | 55.82244 | -3.98412 | 7048 ft | 253 kts | 349° |
| 2026-05-06 19:26 | 55.83971 | -3.98951 | 6809 ft | 252 kts | 349° |
| 2026-05-06 19:26 | 55.85698 | -3.99500 | 6560 ft | 252 kts | 349° |
| 2026-05-06 19:26 | 55.87419 | -4.00060 | 6301 ft | 252 kts | 349° |
| 2026-05-06 19:26 | 55.89139 | -4.00624 | 6039 ft | 251 kts | 349° |
| 2026-05-06 19:27 | 55.90273 | -4.00997 | 5864 ft | 250 kts | 349° |
| 2026-05-06 19:27 | 55.91985 | -4.01559 | 5603 ft | 249 kts | 349° |
| 2026-05-06 19:27 | 55.93689 | -4.02114 | 5347 ft | 248 kts | 349° |
| 2026-05-06 19:27 | 55.95390 | -4.02667 | 5084 ft | 248 kts | 349° |
| 2026-05-06 19:28 | 55.97083 | -4.03215 | 4825 ft | 247 kts | 349° |
| 2026-05-06 19:28 | 55.99312 | -4.04012 | 4474 ft | 246 kts | 339° |
| 2026-05-06 19:28 | 56.00316 | -4.04990 | 4272 ft | 243 kts | 316° |
| 2026-05-06 19:28 | 56.01365 | -4.07288 | 4023 ft | 237 kts | 301° |
| 2026-05-06 19:29 | 56.02244 | -4.09755 | 3753 ft | 234 kts | 298° |
| 2026-05-06 19:29 | 56.02749 | -4.12429 | 3521 ft | 224 kts | 264° |
| 2026-05-06 19:29 | 56.02230 | -4.14855 | 3483 ft | 202 kts | 228° |
| 2026-05-06 19:29 | 56.01350 | -4.16693 | 3466 ft | 189 kts | 227° |
| 2026-05-06 19:30 | 56.00497 | -4.18421 | 3501 ft | 183 kts | 225° |
| 2026-05-06 19:30 | 55.99617 | -4.20103 | 3448 ft | 189 kts | 224° |
| 2026-05-06 19:30 | 55.98696 | -4.21829 | 3234 ft | 195 kts | 224° |
| 2026-05-06 19:30 | 55.97762 | -4.23571 | 2951 ft | 192 kts | 225° |
| 2026-05-06 19:31 | 55.96863 | -4.25248 | 2696 ft | 187 kts | 224° |
| 2026-05-06 19:31 | 55.95974 | -4.26906 | 2436 ft | 183 kts | 225° |
| 2026-05-06 19:31 | 55.94221 | -4.30179 | 1933 ft | 180 kts | 225° |
| 2026-05-06 19:32 | 55.93374 | -4.31761 | 1692 ft | 172 kts | 225° |
| 2026-05-06 19:32 | 55.92567 | -4.33269 | 1453 ft | 163 kts | 225° |
| 2026-05-06 19:32 | 55.91813 | -4.34678 | 1227 ft | 151 kts | 224° |
| 2026-05-06 19:32 | 55.91119 | -4.35946 | 1173 ft | 139 kts | 225° |
| 2026-05-06 19:33 | 55.90422 | -4.37215 | 977 ft | 145 kts | 224° |
| 2026-05-06 19:33 | 55.89713 | -4.38494 | 693 ft | 144 kts | 225° |
| 2026-05-06 19:33 | 55.89047 | -4.39757 | 562 ft | 138 kts | 228° |
| 2026-05-06 19:33 | 55.88387 | -4.41040 | 333 ft | 141 kts | 227° |
| 2026-05-06 19:34 | 55.87730 | -4.42298 | 99 ft | 133 kts | 227° |
| 2026-05-06 19:34 | 55.87138 | -4.43418 | 37 ft | 112 kts | 227° |
| 2026-05-06 19:34 | 55.86687 | -4.44267 | 35 ft | 77 kts | 226° |
| 2026-05-06 19:34 | 55.86461 | -4.44687 | 36 ft | 34 kts | 227° |
| 2026-05-06 19:35 | 55.86379 | -4.44838 | 33 ft | 7 kts | 218° |
| 2026-05-06 19:35 | 55.86327 | -4.44837 | 33 ft | 11 kts | 146° |
| 2026-05-06 19:35 | 55.86257 | -4.44711 | 32 ft | 16 kts | 116° |
| 2026-05-06 19:35 | 55.86326 | -4.44509 | 32 ft | 24 kts | 47° |
| 2026-05-06 19:36 | 55.86445 | -4.44289 | 32 ft | 24 kts | 46° |
| 2026-05-06 19:36 | 55.86555 | -4.44077 | 32 ft | 23 kts | 47° |
| 2026-05-06 19:36 | 55.86657 | -4.43888 | 32 ft | 18 kts | 46° |
| 2026-05-06 19:36 | 55.86731 | -4.43718 | 32 ft | 17 kts | 72° |
| 2026-05-06 19:37 | 55.86676 | -4.43590 | 32 ft | 6 kts | 162° |
| 2026-05-06 19:37 | 55.86636 | -4.43603 | 32 ft | 6 kts | 229° |
| 2026-05-06 19:37 | 55.86626 | -4.43679 | 32 ft | 6 kts | 253° |
| 2026-05-06 19:37 | 55.86621 | -4.43704 | 32 ft | 0 kts | 250° |